createdAt,value
2023-03-11T00:00:31.933Z,100402.85
2023-03-11T00:03:00.838Z,100402.69
2023-03-11T00:05:33.828Z,100393.04
2023-03-11T00:08:02.440Z,100410.37
2023-03-11T00:10:32.380Z,100422.04
2023-03-11T00:13:00.861Z,100416.38
2023-03-11T00:15:29.501Z,100422.34
2023-03-11T00:17:57.557Z,100413.67
2023-03-11T00:20:26.687Z,100426.48
2023-03-11T00:22:55.162Z,100420.30
2023-03-11T00:25:23.790Z,100425.15
2023-03-11T00:27:51.731Z,100418.31
2023-03-11T00:30:20.046Z,100426.32
2023-03-11T00:32:51.849Z,100424.95
2023-03-11T00:35:44.245Z,100427.80
2023-03-11T00:38:16.613Z,100427.11
2023-03-11T00:40:45.355Z,100423.77
2023-03-11T00:43:13.338Z,100421.26
2023-03-11T00:45:41.204Z,100431.26
2023-03-11T00:48:09.643Z,100427.60
2023-03-11T00:50:38.130Z,100414.06
2023-03-11T00:53:06.350Z,100424.59
2023-03-11T00:55:35.552Z,100417.56
2023-03-11T00:58:05.319Z,100429.40
2023-03-11T01:00:33.175Z,100424.88
2023-03-11T01:03:01.021Z,100424.40
2023-03-11T01:05:30.897Z,100433.55
2023-03-11T01:07:59.015Z,100434.70
2023-03-11T01:10:26.987Z,100450.55
2023-03-11T01:12:54.971Z,100434.20
2023-03-11T01:15:28.419Z,100439.99
2023-03-11T01:17:56.266Z,100455.00
2023-03-11T01:20:24.149Z,100444.96
2023-03-11T01:22:52.131Z,100438.98
2023-03-11T01:25:20.799Z,100436.66
2023-03-11T01:27:49.227Z,100447.15
2023-03-11T01:30:26.301Z,100442.97
2023-03-11T01:32:54.568Z,100433.32
2023-03-11T01:35:36.598Z,100425.96
2023-03-11T01:38:13.579Z,100447.48
2023-03-11T01:40:49.577Z,100455.81
2023-03-11T01:43:42.265Z,100456.96
2023-03-11T01:46:11.880Z,100442.77
2023-03-11T01:48:40.087Z,100432.93
2023-03-11T01:51:08.058Z,100423.31
2023-03-11T01:53:36.083Z,100435.58
2023-03-11T01:56:05.244Z,100434.47
2023-03-11T01:58:35.812Z,100435.28
2023-03-11T02:01:03.808Z,100437.28
2023-03-11T02:03:36.600Z,100437.77
2023-03-11T02:06:05.542Z,100435.94
2023-03-11T02:08:35.391Z,100438.13
2023-03-11T02:11:04.535Z,100433.59
2023-03-11T02:13:34.961Z,100436.95
2023-03-11T02:16:04.041Z,100438.42
2023-03-11T02:18:31.848Z,100457.58
2023-03-11T02:21:07.244Z,100462.26
2023-03-11T02:23:49.300Z,100460.59
2023-03-11T02:26:21.324Z,100446.73
2023-03-11T02:28:49.291Z,100437.73
2023-03-11T02:31:17.429Z,100433.75
2023-03-11T02:33:45.481Z,100436.59
2023-03-11T02:36:36.705Z,100430.22
2023-03-11T02:39:05.083Z,100430.22
2023-03-11T02:41:34.393Z,100435.88
2023-03-11T02:44:02.433Z,100443.33
2023-03-11T02:46:30.408Z,100447.84
2023-03-11T02:48:58.292Z,100453.82
2023-03-11T02:51:26.190Z,100454.64
2023-03-11T02:53:56.362Z,100448.49
2023-03-11T02:56:24.251Z,100455.66
2023-03-11T02:58:52.070Z,100460.79
2023-03-11T03:01:20.016Z,100459.12
2023-03-11T03:03:47.971Z,100469.91
2023-03-11T03:06:15.895Z,100466.57
2023-03-11T03:08:43.767Z,100488.71
2023-03-11T03:11:11.642Z,100494.70
2023-03-11T03:13:39.520Z,100486.19
2023-03-11T03:16:07.633Z,100470.73
2023-03-11T03:18:35.542Z,100471.22
2023-03-11T03:21:03.403Z,100465.04
2023-03-11T03:23:31.277Z,100448.88
2023-03-11T03:25:59.855Z,100463.37
2023-03-11T03:28:27.657Z,100455.85
2023-03-11T03:30:55.924Z,100464.64
2023-03-11T03:33:23.767Z,100473.47
2023-03-11T03:35:52.424Z,100483.97
2023-03-11T03:38:20.408Z,100475.76
2023-03-11T03:40:49.094Z,100473.93
2023-03-11T03:43:16.920Z,100457.78
2023-03-11T03:46:04.462Z,100451.27
2023-03-11T03:48:32.427Z,100447.09
2023-03-11T03:51:11.388Z,100453.89
2023-03-11T03:53:39.382Z,100461.54
2023-03-11T03:56:08.313Z,100461.70
2023-03-11T03:58:36.182Z,100469.98
2023-03-11T04:01:05.334Z,100476.16
2023-03-11T04:03:33.413Z,100483.80
2023-03-11T04:06:08.512Z,100489.76
2023-03-11T04:08:36.331Z,100478.80
2023-03-11T04:11:04.289Z,100475.14
2023-03-11T04:13:32.235Z,100478.24
2023-03-11T04:16:00.284Z,100465.30
2023-03-11T04:18:28.379Z,100484.27
2023-03-11T04:20:56.346Z,100487.92
2023-03-11T04:23:24.215Z,100496.72
2023-03-11T04:25:52.435Z,100501.23
2023-03-11T04:28:21.480Z,100494.73
2023-03-11T04:30:49.348Z,100494.53
2023-03-11T04:33:17.261Z,100498.19
2023-03-11T04:35:45.094Z,100494.53
2023-03-11T04:38:13.135Z,100492.01
2023-03-11T04:40:40.947Z,100479.88
2023-03-11T04:43:08.793Z,100494.34
2023-03-11T04:45:39.119Z,100491.48
2023-03-11T04:48:06.984Z,100484.49
2023-03-11T04:50:34.906Z,100488.48
2023-03-11T04:53:02.727Z,100491.09
2023-03-11T04:55:30.567Z,100501.27
2023-03-11T04:57:58.332Z,100494.76
2023-03-11T05:00:26.303Z,100491.62
2023-03-11T05:02:54.162Z,100487.11
2023-03-11T05:05:22.287Z,100501.07
2023-03-11T05:07:50.326Z,100509.86
2023-03-11T05:10:23.501Z,100515.29
2023-03-11T05:12:52.548Z,100518.46
2023-03-11T05:15:20.543Z,100525.79
2023-03-11T05:17:48.433Z,100518.46
2023-03-11T05:20:16.608Z,100523.59
2023-03-11T05:22:44.485Z,100531.87
2023-03-11T05:25:25.611Z,100524.02
2023-03-11T05:27:54.044Z,100536.15
2023-03-11T05:30:21.959Z,100534.94
2023-03-11T05:32:50.302Z,100547.37
2023-03-11T05:35:18.389Z,100553.45
2023-03-11T05:37:46.768Z,100555.54
2023-03-11T05:40:15.165Z,100556.39
2023-03-11T05:42:43.112Z,100562.34
2023-03-11T05:45:11.539Z,100561.82
2023-03-11T05:47:39.461Z,100556.78
2023-03-11T05:50:07.991Z,100555.12
2023-03-11T05:52:35.915Z,100545.27
2023-03-11T05:55:03.781Z,100550.93
2023-03-11T05:57:31.708Z,100538.60
2023-03-11T05:59:59.473Z,100547.59
2023-03-11T06:02:27.337Z,100538.27
2023-03-11T06:04:55.308Z,100540.04
2023-03-11T06:07:23.207Z,100539.84
2023-03-11T06:09:51.691Z,100538.18
2023-03-11T06:12:19.489Z,100537.95
2023-03-11T06:14:47.440Z,100528.63
2023-03-11T06:17:15.280Z,100542.76
2023-03-11T06:19:43.126Z,100555.77
2023-03-11T06:22:10.962Z,100561.42
2023-03-11T06:24:38.894Z,100568.20
2023-03-11T06:27:06.726Z,100564.23
2023-03-11T06:29:34.622Z,100577.84
2023-03-11T06:32:02.376Z,100581.50
2023-03-11T06:34:30.308Z,100582.94
2023-03-11T06:36:58.595Z,100593.63
2023-03-11T06:39:26.551Z,100599.91
2023-03-11T06:41:54.443Z,100605.53
2023-03-11T06:44:22.296Z,100605.34
2023-03-11T06:46:50.235Z,100615.80
2023-03-11T06:49:18.133Z,100614.66
2023-03-11T06:51:45.990Z,100613.80
2023-03-11T06:54:14.002Z,100609.09
2023-03-11T06:56:41.765Z,100614.52
2023-03-11T06:59:09.715Z,100619.56
2023-03-11T07:01:37.863Z,100633.39
2023-03-11T07:04:05.904Z,100638.20
2023-03-11T07:06:33.731Z,100650.33
2023-03-11T07:09:01.714Z,100641.92
2023-03-11T07:11:29.597Z,100645.36
2023-03-11T07:13:57.447Z,100647.16
2023-03-11T07:16:27.289Z,100641.50
2023-03-11T07:18:57.397Z,100649.64
2023-03-11T07:21:25.342Z,100659.28
2023-03-11T07:23:56.895Z,100657.52
2023-03-11T07:26:25.196Z,100665.14
2023-03-11T07:28:53.973Z,100659.22
2023-03-11T07:31:42.641Z,100656.93
2023-03-11T07:34:13.046Z,100649.18
2023-03-11T07:36:41.937Z,100651.44
2023-03-11T07:39:11.872Z,100654.41
2023-03-11T07:41:39.681Z,100654.45
2023-03-11T07:44:09.838Z,100658.80
2023-03-11T07:46:37.727Z,100663.41
2023-03-11T07:49:05.658Z,100670.63
2023-03-11T07:51:34.717Z,100675.47
2023-03-11T07:54:06.037Z,100679.39
2023-03-11T07:56:34.990Z,100681.48
2023-03-11T07:59:03.628Z,100674.78
2023-03-11T08:01:37.332Z,100680.93
2023-03-11T08:04:06.268Z,100672.04
2023-03-11T08:06:34.872Z,100670.04
2023-03-11T08:09:05.125Z,100668.99
2023-03-11T08:11:33.064Z,100667.63
2023-03-11T08:14:01.046Z,100673.80
2023-03-11T08:16:29.117Z,100685.12
2023-03-11T08:18:57.170Z,100695.25
2023-03-11T08:21:26.764Z,100693.88
2023-03-11T08:23:55.600Z,100683.41
2023-03-11T08:26:23.526Z,100693.88
2023-03-11T08:28:51.360Z,100695.55
2023-03-11T08:31:25.303Z,100700.71
2023-03-11T08:33:54.618Z,100709.18
2023-03-11T08:36:22.699Z,100706.63
2023-03-11T08:38:50.751Z,100716.90
2023-03-11T08:41:18.716Z,100722.55
2023-03-11T08:43:46.814Z,100723.99
2023-03-11T08:46:25.461Z,100711.53
2023-03-11T08:48:53.876Z,100721.51
2023-03-11T08:51:21.775Z,100723.70
2023-03-11T08:53:49.697Z,100727.66
2023-03-11T08:56:17.915Z,100727.66
2023-03-11T08:58:45.986Z,100728.11
2023-03-11T09:01:14.439Z,100735.99
2023-03-11T09:03:42.488Z,100735.66
2023-03-11T09:06:12.681Z,100730.76
2023-03-11T09:08:40.657Z,100741.13
2023-03-11T09:11:09.598Z,100739.59
2023-03-11T09:13:37.710Z,100735.60
2023-03-11T09:16:07.131Z,100731.02
2023-03-11T09:18:35.048Z,100734.09
2023-03-11T09:21:03.162Z,100728.57
2023-03-11T09:23:33.067Z,100732.72
2023-03-11T09:26:01.040Z,100738.61
2023-03-11T09:28:29.346Z,100753.81
2023-03-11T09:30:57.791Z,100755.67
2023-03-11T09:33:29.515Z,100752.77
2023-03-11T09:35:58.575Z,100766.63
2023-03-11T09:38:26.530Z,100762.64
2023-03-11T09:41:20.687Z,100768.20
2023-03-11T09:44:03.698Z,100764.44
2023-03-11T09:46:43.770Z,100763.91
2023-03-11T09:49:17.974Z,100767.77
2023-03-11T09:51:49.060Z,100768.23
2023-03-11T09:54:17.160Z,100766.34
2023-03-11T09:56:45.175Z,100765.05
2023-03-11T09:59:22.570Z,100767.38
2023-03-11T10:01:50.581Z,100767.61
2023-03-11T10:04:21.617Z,100772.64
2023-03-11T10:06:49.674Z,100777.32
2023-03-11T10:09:17.509Z,100771.63
2023-03-11T10:12:19.535Z,100781.21
2023-03-11T10:14:54.326Z,100777.02
2023-03-11T10:17:25.258Z,100771.14
2023-03-11T10:20:09.597Z,100772.35
2023-03-11T10:22:53.010Z,100779.87
2023-03-11T10:25:31.387Z,100769.34
2023-03-11T10:28:18.813Z,100766.07
2023-03-11T10:30:57.996Z,100764.73
2023-03-11T10:33:47.751Z,100766.40
2023-03-11T10:36:20.377Z,100768.16
2023-03-11T10:38:49.522Z,100761.04
2023-03-11T10:41:32.288Z,100758.78
2023-03-11T10:47:05.478Z,100753.81
2023-03-11T10:49:33.558Z,100754.01
2023-03-11T10:52:01.422Z,100750.80
2023-03-11T10:54:30.429Z,100758.68
2023-03-11T10:57:00.915Z,100750.84
2023-03-11T10:59:34.050Z,100758.39
2023-03-11T11:02:28.043Z,100756.20
2023-03-11T11:05:04.979Z,100757.18
2023-03-11T11:07:37.528Z,100755.54
2023-03-11T11:10:25.601Z,100756.00
2023-03-11T11:13:00.078Z,100753.84
2023-03-11T11:15:32.094Z,100748.68
2023-03-11T11:18:08.693Z,100748.19
2023-03-11T11:20:36.660Z,100753.98
2023-03-11T11:23:05.059Z,100752.96
2023-03-11T11:25:40.465Z,100743.48
2023-03-11T11:28:22.007Z,100734.68
2023-03-11T11:31:01.102Z,100742.17
2023-03-11T11:33:33.814Z,100738.73
2023-03-11T11:36:04.402Z,100735.11
2023-03-11T11:38:33.474Z,100732.55
2023-03-11T11:41:04.011Z,100734.06
2023-03-11T11:43:50.191Z,100739.52
2023-03-11T11:46:31.535Z,100731.28
2023-03-11T11:49:19.500Z,100725.16
2023-03-11T11:51:52.022Z,100723.53
2023-03-11T11:54:41.874Z,100722.98
2023-03-11T11:57:16.378Z,100712.52
2023-03-11T11:59:44.988Z,100709.08
2023-03-11T12:02:32.640Z,100706.30
2023-03-11T12:05:37.271Z,100695.19
2023-03-11T12:08:11.364Z,100696.98
2023-03-11T12:10:53.897Z,100687.57
2023-03-11T12:13:45.016Z,100685.12
2023-03-11T12:16:36.836Z,100701.92
2023-03-11T12:19:11.595Z,100702.12
2023-03-11T12:21:39.418Z,100692.41
2023-03-11T12:24:36.500Z,100692.96
2023-03-11T12:27:08.626Z,100686.78
2023-03-11T12:29:43.238Z,100679.85
2023-03-11T12:32:12.252Z,100677.82
2023-03-11T12:34:40.252Z,100682.80
2023-03-11T12:37:14.781Z,100681.68
2023-03-11T12:39:42.779Z,100673.93
2023-03-11T12:42:27.767Z,100660.82
2023-03-11T12:44:56.126Z,100673.57
2023-03-11T12:47:30.381Z,100679.85
2023-03-11T12:50:36.647Z,100676.81
2023-03-11T12:53:05.079Z,100676.12
2023-03-11T12:55:34.926Z,100678.15
2023-03-11T12:58:33.198Z,100675.77
2023-03-11T13:01:11.994Z,100673.97
2023-03-11T13:03:49.168Z,100673.21
2023-03-11T13:06:27.080Z,100673.45
2023-03-11T13:08:58.385Z,100672.73
2023-03-11T13:11:35.484Z,100673.41
2023-03-11T13:14:35.523Z,100663.90
2023-03-11T13:17:26.837Z,100662.95
2023-03-11T13:19:58.653Z,100664.09
2023-03-11T13:22:59.202Z,100673.54
2023-03-11T13:25:28.030Z,100668.41
2023-03-11T13:27:59.956Z,100670.66
2023-03-11T13:30:27.830Z,100663.38
2023-03-11T13:33:18.479Z,100663.90
2023-03-11T13:36:03.975Z,100663.27
2023-03-11T13:38:41.212Z,100661.93
2023-03-11T13:41:32.996Z,100666.94
2023-03-11T13:44:07.505Z,100668.96
2023-03-11T13:46:39.611Z,100666.77
2023-03-11T13:49:25.504Z,100666.55
2023-03-11T13:51:53.321Z,100665.56
2023-03-11T13:54:49.828Z,100670.08
2023-03-11T13:57:25.382Z,100667.03
2023-03-11T13:59:55.214Z,100668.51
2023-03-11T14:02:27.886Z,100670.76
2023-03-11T14:04:59.369Z,100679.98
2023-03-11T14:07:32.839Z,100678.38
2023-03-11T14:10:13.587Z,100685.05
2023-03-11T14:12:41.397Z,100681.59
2023-03-11T14:15:09.952Z,100677.89
2023-03-11T14:17:37.867Z,100681.26
2023-03-11T14:20:18.760Z,100688.55
2023-03-11T14:22:48.078Z,100685.24
2023-03-11T14:25:29.512Z,100686.42
2023-03-11T14:27:59.097Z,100683.41
2023-03-11T14:30:29.112Z,100698.52
2023-03-11T14:33:03.540Z,100696.85
2023-03-11T14:35:32.756Z,100694.63
2023-03-11T14:38:01.196Z,100700.52
2023-03-11T14:40:37.856Z,100697.67
2023-03-11T14:43:07.591Z,100705.52
2023-03-11T14:45:38.523Z,100700.65
2023-03-11T14:48:30.939Z,100702.34
2023-03-11T14:51:00.095Z,100706.56
2023-03-11T14:53:28.798Z,100707.09
2023-03-11T14:56:08.064Z,100708.27
2023-03-11T14:58:37.031Z,100716.38
2023-03-11T15:01:11.046Z,100713.85
2023-03-11T15:03:41.101Z,100715.88
2023-03-11T15:06:15.752Z,100715.52
2023-03-11T15:08:53.816Z,100710.68
2023-03-11T15:11:26.507Z,100711.17
2023-03-11T15:13:54.468Z,100712.48
2023-03-11T15:16:42.791Z,100715.95
2023-03-11T15:19:29.008Z,100717.91
2023-03-11T15:22:07.116Z,100729.65
2023-03-11T15:24:35.153Z,100728.11
2023-03-11T15:27:07.924Z,100726.73
2023-03-11T15:29:36.383Z,100730.62
2023-03-11T15:32:27.007Z,100728.37
2023-03-11T15:35:11.811Z,100724.16
2023-03-11T15:37:40.397Z,100717.62
2023-03-11T15:40:35.272Z,100718.43
2023-03-11T15:43:16.290Z,100716.63
2023-03-11T15:45:44.760Z,100717.91
2023-03-11T15:48:13.367Z,100724.05
2023-03-11T15:50:57.986Z,100730.76
2023-03-11T15:53:26.567Z,100732.72
2023-03-11T15:55:55.756Z,100743.38
2023-03-11T15:58:23.720Z,100731.87
2023-03-11T16:00:53.761Z,100740.73
2023-03-11T16:03:21.694Z,100727.85
2023-03-11T16:05:49.734Z,100720.75
2023-03-11T16:08:17.679Z,100726.25
2023-03-11T16:10:45.561Z,100731.87
2023-03-11T16:13:14.459Z,100730.82
2023-03-11T16:15:43.352Z,100733.21
2023-03-11T16:18:11.352Z,100739.06
2023-03-11T16:20:51.724Z,100728.24
2023-03-11T16:23:21.708Z,100741.55
2023-03-11T16:25:49.754Z,100747.50
2023-03-11T16:28:18.019Z,100747.86
2023-03-11T16:30:45.992Z,100755.64
2023-03-11T16:33:14.014Z,100760.41
2023-03-11T16:35:42.041Z,100762.93
2023-03-11T16:38:10.045Z,100764.50
2023-03-11T16:40:38.203Z,100772.28
2023-03-11T16:43:13.900Z,100781.21
2023-03-11T16:45:41.850Z,100782.98
2023-03-11T16:48:09.853Z,100784.64
2023-03-11T16:50:37.863Z,100782.35
2023-03-11T16:53:06.247Z,100784.91
2023-03-11T16:55:34.277Z,100800.11
2023-03-11T16:58:02.155Z,100802.30
2023-03-11T17:00:30.334Z,100809.43
2023-03-11T17:02:58.204Z,100810.47
2023-03-11T17:05:26.189Z,100814.16
2023-03-11T17:07:55.859Z,100822.44
2023-03-11T17:10:25.774Z,100822.44
2023-03-11T17:12:53.828Z,100822.44
2023-03-11T17:15:22.003Z,100826.46
2023-03-11T17:17:51.012Z,100824.80
2023-03-11T17:20:21.488Z,100833.30
2023-03-11T17:22:49.807Z,100830.88
2023-03-11T17:25:17.910Z,100829.17
2023-03-11T17:27:45.798Z,100821.49
2023-03-11T17:30:19.387Z,100827.51
2023-03-11T17:32:52.468Z,100831.49
2023-03-11T17:35:20.589Z,100828.45
2023-03-11T17:37:48.805Z,100841.14
2023-03-11T17:40:21.208Z,100836.30
2023-03-11T17:42:49.106Z,100841.77
2023-03-11T17:45:17.168Z,100840.32
2023-03-11T17:47:45.348Z,100852.48
2023-03-11T17:50:13.910Z,100860.50
2023-03-11T17:52:42.029Z,100864.98
2023-03-11T17:55:10.664Z,100870.96
2023-03-11T17:57:45.601Z,100872.95
2023-03-11T18:00:15.931Z,100879.98
2023-03-11T18:02:43.963Z,100884.30
2023-03-11T18:05:11.811Z,100882.11
2023-03-11T18:07:40.337Z,100877.40
2023-03-11T18:10:08.590Z,100879.59
2023-03-11T18:12:36.510Z,100894.27
2023-03-11T18:15:07.395Z,100890.61
2023-03-11T18:17:38.300Z,100903.40
2023-03-11T18:20:07.039Z,100898.91
2023-03-11T18:22:35.650Z,100904.18
2023-03-11T18:25:06.552Z,100905.62
2023-03-11T18:27:34.633Z,100911.60
2023-03-11T18:30:03.201Z,100915.59
2023-03-11T18:32:32.030Z,100927.75
2023-03-11T18:34:59.970Z,100928.31
2023-03-11T18:37:28.592Z,100939.30
2023-03-11T18:39:56.608Z,100935.63
2023-03-11T18:42:24.753Z,100942.14
2023-03-11T18:44:52.784Z,100939.63
2023-03-11T18:47:21.247Z,100941.95
2023-03-11T18:49:49.325Z,100942.47
2023-03-11T18:52:17.259Z,100942.76
2023-03-11T18:54:46.186Z,100942.76
2023-03-11T18:57:14.279Z,100947.73
2023-03-11T18:59:42.229Z,100958.81
2023-03-11T19:02:11.654Z,100954.53
2023-03-11T19:04:39.671Z,100956.82
2023-03-11T19:07:08.145Z,100962.48
2023-03-11T19:09:36.151Z,100965.95
2023-03-11T19:12:04.125Z,100974.64
2023-03-11T19:14:32.020Z,100972.22
2023-03-11T19:17:00.364Z,100990.27
2023-03-11T19:19:28.590Z,100990.27
2023-03-11T19:21:56.639Z,100985.43
2023-03-11T19:24:24.640Z,100993.37
2023-03-11T19:26:52.636Z,100998.21
2023-03-11T19:29:21.234Z,100993.37
2023-03-11T19:31:49.289Z,100990.56
2023-03-11T19:34:17.644Z,100997.40
2023-03-11T19:36:47.964Z,100995.37
2023-03-11T19:42:15.340Z,100990.04
2023-03-11T19:44:43.309Z,100984.91
2023-03-11T19:47:11.495Z,100992.55
2023-03-11T19:49:39.576Z,100990.56
2023-03-11T19:52:10.902Z,100993.70
2023-03-11T19:54:39.049Z,101009.63
2023-03-11T19:57:07.107Z,101004.30
2023-03-11T19:59:34.965Z,100996.09
2023-03-11T20:02:04.340Z,101003.74
2023-03-11T20:04:32.458Z,101002.63
2023-03-11T20:07:00.756Z,101005.73
2023-03-11T20:09:28.752Z,101012.86
2023-03-11T20:11:57.574Z,101013.19
2023-03-11T20:14:25.585Z,101013.19
2023-03-11T20:16:53.867Z,101019.95
2023-03-11T20:19:22.073Z,101013.81
2023-03-11T20:21:50.266Z,101015.18
2023-03-11T20:24:18.237Z,101020.28
2023-03-11T20:26:46.318Z,101020.28
2023-03-11T20:29:14.415Z,101020.91
2023-03-11T20:31:42.898Z,101020.71
2023-03-11T20:34:11.102Z,101028.36
2023-03-11T20:36:39.271Z,101022.70
2023-03-11T20:39:10.262Z,101018.98
2023-03-11T20:41:39.716Z,101029.80
2023-03-11T20:44:08.602Z,101027.58
2023-03-11T20:46:36.817Z,101034.08
2023-03-11T20:49:04.865Z,101043.73
2023-03-11T20:51:32.714Z,101042.65
2023-03-11T20:54:00.733Z,101045.20
2023-03-11T20:56:28.787Z,101042.35
2023-03-11T20:58:57.338Z,101054.59
2023-03-11T21:01:27.379Z,101048.63
2023-03-11T21:03:56.566Z,101052.30
2023-03-11T21:06:26.380Z,101047.78
2023-03-11T21:08:55.458Z,101043.89
2023-03-11T21:11:24.072Z,101052.98
2023-03-11T21:13:52.303Z,101052.13
2023-03-11T21:16:20.452Z,101050.46
2023-03-11T21:18:49.541Z,101050.70
2023-03-11T21:21:18.215Z,101052.69
2023-03-11T21:23:47.811Z,101057.82
2023-03-11T21:26:16.711Z,101057.82
2023-03-11T21:28:47.689Z,101059.81
2023-03-11T21:31:20.564Z,101069.13
2023-03-11T21:33:48.830Z,101067.73
2023-03-11T21:36:17.444Z,101073.94
2023-03-11T21:38:45.623Z,101074.16
2023-03-11T21:41:18.559Z,101070.80
2023-03-11T21:43:46.910Z,101076.16
2023-03-11T21:46:17.296Z,101076.16
2023-03-11T21:48:45.544Z,101073.02
2023-03-11T21:51:13.977Z,101068.22
2023-03-11T21:53:43.193Z,101072.50
2023-03-11T21:56:11.458Z,101074.79
2023-03-11T21:58:40.064Z,101076.23
2023-03-11T22:01:08.796Z,101077.41
2023-03-11T22:03:37.822Z,101073.41
2023-03-11T22:06:10.704Z,101086.43
2023-03-11T22:08:39.051Z,101092.09
2023-03-11T22:11:11.750Z,101090.94
2023-03-11T22:13:39.712Z,101086.66
2023-03-11T22:16:08.277Z,101088.95
2023-03-11T22:18:36.466Z,101084.11
2023-03-11T22:21:04.780Z,101088.55
2023-03-11T22:23:32.945Z,101090.25
2023-03-11T22:26:00.928Z,101089.11
2023-03-11T22:28:28.979Z,101095.91
2023-03-11T22:30:57.001Z,101095.29
2023-03-11T22:33:25.077Z,101087.93
2023-03-11T22:35:57.196Z,101100.72
2023-03-11T22:38:25.280Z,101100.42
2023-03-11T22:40:53.353Z,101102.91
2023-03-11T22:43:21.318Z,101098.43
2023-03-11T22:45:49.442Z,101099.87
2023-03-11T22:48:17.569Z,101098.43
2023-03-11T22:50:45.730Z,101103.23
2023-03-11T22:53:13.953Z,101101.57
2023-03-11T22:55:45.379Z,101109.12
2023-03-11T22:58:13.484Z,101111.18
2023-03-11T23:00:48.471Z,101112.36
2023-03-11T23:03:17.161Z,101108.14
2023-03-11T23:05:47.067Z,101110.95
2023-03-11T23:08:16.771Z,101113.17
2023-03-11T23:10:46.025Z,101119.06
2023-03-11T23:13:14.586Z,101117.06
2023-03-11T23:15:43.644Z,101118.24
2023-03-11T23:18:11.772Z,101125.83
2023-03-11T23:20:41.545Z,101128.67
2023-03-11T23:23:09.980Z,101124.45
2023-03-11T23:25:38.124Z,101124.13
2023-03-11T23:28:07.007Z,101124.72
2023-03-11T23:30:35.126Z,101120.83
2023-03-11T23:33:04.217Z,101116.84
2023-03-11T23:35:32.616Z,101127.56
2023-03-11T23:38:00.700Z,101123.84
2023-03-11T23:40:28.714Z,101131.16
2023-03-11T23:42:56.662Z,101132.01
2023-03-11T23:45:24.609Z,101126.35
2023-03-11T23:47:52.522Z,101127.16
2023-03-11T23:50:20.389Z,101123.51
2023-03-11T23:52:48.377Z,101133.71
2023-03-11T23:55:16.247Z,101134.23
2023-03-11T23:57:44.180Z,101129.72
